sensor_id;sensor_type;location;lat;lon;timestamp;temperature;humidity
79711;DHT22;69465;51.630;6.570;2023-05-27T00:00:40;10.70;51.80
79711;DHT22;69465;51.630;6.570;2023-05-27T00:03:06;10.70;52.40
79711;DHT22;69465;51.630;6.570;2023-05-27T00:05:33;10.60;52.60
79711;DHT22;69465;51.630;6.570;2023-05-27T00:08:00;10.60;51.90
79711;DHT22;69465;51.630;6.570;2023-05-27T00:10:26;10.60;51.90
79711;DHT22;69465;51.630;6.570;2023-05-27T00:12:53;10.60;52.30
79711;DHT22;69465;51.630;6.570;2023-05-27T00:15:20;10.50;51.70
79711;DHT22;69465;51.630;6.570;2023-05-27T00:17:46;10.50;52.40
79711;DHT22;69465;51.630;6.570;2023-05-27T00:20:13;10.50;52.40
79711;DHT22;69465;51.630;6.570;2023-05-27T00:22:40;10.50;52.40
79711;DHT22;69465;51.630;6.570;2023-05-27T00:25:06;10.40;52.00
79711;DHT22;69465;51.630;6.570;2023-05-27T00:27:33;10.40;52.70
79711;DHT22;69465;51.630;6.570;2023-05-27T00:30:00;10.40;52.00
79711;DHT22;69465;51.630;6.570;2023-05-27T00:32:26;10.40;52.40
79711;DHT22;69465;51.630;6.570;2023-05-27T00:34:53;10.40;52.60
79711;DHT22;69465;51.630;6.570;2023-05-27T00:37:20;10.30;52.20
79711;DHT22;69465;51.630;6.570;2023-05-27T00:39:46;10.30;52.70
79711;DHT22;69465;51.630;6.570;2023-05-27T00:42:13;10.30;52.10
79711;DHT22;69465;51.630;6.570;2023-05-27T00:44:40;10.30;52.60
79711;DHT22;69465;51.630;6.570;2023-05-27T00:47:06;10.20;52.30
79711;DHT22;69465;51.630;6.570;2023-05-27T00:49:33;10.20;52.50
79711;DHT22;69465;51.630;6.570;2023-05-27T00:52:00;10.20;53.20
79711;DHT22;69465;51.630;6.570;2023-05-27T00:54:27;10.20;53.10
79711;DHT22;69465;51.630;6.570;2023-05-27T00:56:54;10.20;52.60
79711;DHT22;69465;51.630;6.570;2023-05-27T00:59:22;10.20;52.70
79711;DHT22;69465;51.630;6.570;2023-05-27T01:01:49;10.10;52.90
79711;DHT22;69465;51.630;6.570;2023-05-27T01:04:16;10.10;53.10
79711;DHT22;69465;51.630;6.570;2023-05-27T01:10:06;10.10;53.30
79711;DHT22;69465;51.630;6.570;2023-05-27T01:12:59;10.00;53.40
79711;DHT22;69465;51.630;6.570;2023-05-27T01:15:27;10.00;53.60
79711;DHT22;69465;51.630;6.570;2023-05-27T01:17:59;10.00;53.60
79711;DHT22;69465;51.630;6.570;2023-05-27T01:20:28;9.90;54.50
79711;DHT22;69465;51.630;6.570;2023-05-27T01:22:55;9.90;54.90
79711;DHT22;69465;51.630;6.570;2023-05-27T01:25:23;9.80;55.20
79711;DHT22;69465;51.630;6.570;2023-05-27T01:27:50;9.80;54.80
79711;DHT22;69465;51.630;6.570;2023-05-27T01:30:16;9.80;55.00
79711;DHT22;69465;51.630;6.570;2023-05-27T01:32:52;9.80;55.20
79711;DHT22;69465;51.630;6.570;2023-05-27T01:38:12;9.70;54.20
79711;DHT22;69465;51.630;6.570;2023-05-27T01:40:40;9.70;54.60
79711;DHT22;69465;51.630;6.570;2023-05-27T01:43:09;9.70;54.60
79711;DHT22;69465;51.630;6.570;2023-05-27T01:45:36;9.60;54.20
79711;DHT22;69465;51.630;6.570;2023-05-27T01:48:03;9.60;54.20
79711;DHT22;69465;51.630;6.570;2023-05-27T01:50:30;9.60;54.30
79711;DHT22;69465;51.630;6.570;2023-05-27T01:52:57;9.60;54.50
79711;DHT22;69465;51.630;6.570;2023-05-27T01:55:24;9.60;54.60
79711;DHT22;69465;51.630;6.570;2023-05-27T01:57:50;9.50;54.40
79711;DHT22;69465;51.630;6.570;2023-05-27T02:00:17;9.50;54.40
79711;DHT22;69465;51.630;6.570;2023-05-27T02:02:44;9.50;54.90
79711;DHT22;69465;51.630;6.570;2023-05-27T02:05:11;9.50;54.60
79711;DHT22;69465;51.630;6.570;2023-05-27T02:07:37;9.50;55.60
79711;DHT22;69465;51.630;6.570;2023-05-27T02:10:04;9.50;54.90
79711;DHT22;69465;51.630;6.570;2023-05-27T02:12:31;9.40;54.90
79711;DHT22;69465;51.630;6.570;2023-05-27T02:14:57;9.40;54.90
79711;DHT22;69465;51.630;6.570;2023-05-27T02:17:24;9.40;55.40
79711;DHT22;69465;51.630;6.570;2023-05-27T02:19:51;9.40;55.50
79711;DHT22;69465;51.630;6.570;2023-05-27T02:22:17;9.40;55.30
79711;DHT22;69465;51.630;6.570;2023-05-27T02:24:44;9.30;55.20
79711;DHT22;69465;51.630;6.570;2023-05-27T02:27:11;9.30;55.60
79711;DHT22;69465;51.630;6.570;2023-05-27T02:29:38;9.30;55.20
79711;DHT22;69465;51.630;6.570;2023-05-27T02:32:04;9.20;55.40
79711;DHT22;69465;51.630;6.570;2023-05-27T02:34:31;9.20;55.40
79711;DHT22;69465;51.630;6.570;2023-05-27T02:36:58;9.20;55.50
79711;DHT22;69465;51.630;6.570;2023-05-27T02:39:24;9.20;55.30
79711;DHT22;69465;51.630;6.570;2023-05-27T02:41:51;9.20;55.30
79711;DHT22;69465;51.630;6.570;2023-05-27T02:44:18;9.20;55.60
79711;DHT22;69465;51.630;6.570;2023-05-27T02:46:44;9.20;55.50
79711;DHT22;69465;51.630;6.570;2023-05-27T02:49:11;9.10;55.40
79711;DHT22;69465;51.630;6.570;2023-05-27T02:51:38;9.10;55.60
79711;DHT22;69465;51.630;6.570;2023-05-27T02:54:05;9.10;55.70
79711;DHT22;69465;51.630;6.570;2023-05-27T02:56:32;9.10;55.60
79711;DHT22;69465;51.630;6.570;2023-05-27T02:58:58;9.00;55.60
79711;DHT22;69465;51.630;6.570;2023-05-27T03:01:25;9.00;55.80
79711;DHT22;69465;51.630;6.570;2023-05-27T03:03:52;9.00;55.90
79711;DHT22;69465;51.630;6.570;2023-05-27T03:06:19;9.00;55.90
79711;DHT22;69465;51.630;6.570;2023-05-27T03:08:46;9.00;56.10
79711;DHT22;69465;51.630;6.570;2023-05-27T03:11:12;9.00;56.20
79711;DHT22;69465;51.630;6.570;2023-05-27T03:13:39;8.90;56.10
79711;DHT22;69465;51.630;6.570;2023-05-27T03:16:06;8.90;56.20
79711;DHT22;69465;51.630;6.570;2023-05-27T03:18:33;8.90;56.30
79711;DHT22;69465;51.630;6.570;2023-05-27T03:21:00;8.90;56.50
79711;DHT22;69465;51.630;6.570;2023-05-27T03:23:27;8.90;56.60
79711;DHT22;69465;51.630;6.570;2023-05-27T03:25:53;8.80;56.80
79711;DHT22;69465;51.630;6.570;2023-05-27T03:28:20;8.80;56.70
79711;DHT22;69465;51.630;6.570;2023-05-27T03:30:47;8.80;56.90
79711;DHT22;69465;51.630;6.570;2023-05-27T03:33:13;8.80;57.20
79711;DHT22;69465;51.630;6.570;2023-05-27T03:35:40;8.80;57.30
79711;DHT22;69465;51.630;6.570;2023-05-27T03:38:07;8.80;57.70
79711;DHT22;69465;51.630;6.570;2023-05-27T03:40:34;8.70;57.40
79711;DHT22;69465;51.630;6.570;2023-05-27T03:43:00;8.70;57.30
79711;DHT22;69465;51.630;6.570;2023-05-27T03:45:27;8.70;58.30
79711;DHT22;69465;51.630;6.570;2023-05-27T03:47:54;8.70;57.80
79711;DHT22;69465;51.630;6.570;2023-05-27T03:50:20;8.70;57.60
79711;DHT22;69465;51.630;6.570;2023-05-27T03:52:48;8.70;57.80
79711;DHT22;69465;51.630;6.570;2023-05-27T03:55:15;8.70;57.60
79711;DHT22;69465;51.630;6.570;2023-05-27T03:57:42;8.70;57.60
79711;DHT22;69465;51.630;6.570;2023-05-27T04:00:09;8.70;57.50
79711;DHT22;69465;51.630;6.570;2023-05-27T04:02:36;8.70;58.20
79711;DHT22;69465;51.630;6.570;2023-05-27T04:05:04;8.70;58.30
79711;DHT22;69465;51.630;6.570;2023-05-27T04:07:30;8.70;58.50
79711;DHT22;69465;51.630;6.570;2023-05-27T04:09:57;8.70;58.00
79711;DHT22;69465;51.630;6.570;2023-05-27T04:12:24;8.80;57.70
79711;DHT22;69465;51.630;6.570;2023-05-27T04:14:51;8.80;57.80
79711;DHT22;69465;51.630;6.570;2023-05-27T04:17:17;8.80;57.80
79711;DHT22;69465;51.630;6.570;2023-05-27T04:19:44;8.90;57.60
79711;DHT22;69465;51.630;6.570;2023-05-27T04:22:11;9.00;57.90
79711;DHT22;69465;51.630;6.570;2023-05-27T04:24:37;9.00;58.00
79711;DHT22;69465;51.630;6.570;2023-05-27T04:27:04;9.10;57.60
79711;DHT22;69465;51.630;6.570;2023-05-27T04:29:31;9.20;57.30
79711;DHT22;69465;51.630;6.570;2023-05-27T04:31:58;9.30;57.40
79711;DHT22;69465;51.630;6.570;2023-05-27T04:34:24;9.30;56.60
79711;DHT22;69465;51.630;6.570;2023-05-27T04:36:51;9.40;56.80
79711;DHT22;69465;51.630;6.570;2023-05-27T04:39:18;9.50;56.10
79711;DHT22;69465;51.630;6.570;2023-05-27T04:41:46;9.60;56.20
79711;DHT22;69465;51.630;6.570;2023-05-27T04:44:12;9.70;56.10
79711;DHT22;69465;51.630;6.570;2023-05-27T04:46:39;9.70;55.50
79711;DHT22;69465;51.630;6.570;2023-05-27T04:49:06;9.80;55.20
79711;DHT22;69465;51.630;6.570;2023-05-27T04:51:33;9.80;55.20
79711;DHT22;69465;51.630;6.570;2023-05-27T04:54:00;9.90;55.10
79711;DHT22;69465;51.630;6.570;2023-05-27T04:56:26;10.00;54.10
79711;DHT22;69465;51.630;6.570;2023-05-27T04:58:53;10.10;54.00
79711;DHT22;69465;51.630;6.570;2023-05-27T05:01:20;10.10;53.60
79711;DHT22;69465;51.630;6.570;2023-05-27T05:03:47;10.20;53.10
79711;DHT22;69465;51.630;6.570;2023-05-27T05:06:14;10.40;52.80
79711;DHT22;69465;51.630;6.570;2023-05-27T05:08:41;10.80;52.00
79711;DHT22;69465;51.630;6.570;2023-05-27T05:11:07;11.60;50.30
79711;DHT22;69465;51.630;6.570;2023-05-27T05:13:34;12.40;48.50
79711;DHT22;69465;51.630;6.570;2023-05-27T05:16:01;13.30;46.60
79711;DHT22;69465;51.630;6.570;2023-05-27T05:18:28;14.20;44.50
79711;DHT22;69465;51.630;6.570;2023-05-27T05:20:54;15.00;42.20
79711;DHT22;69465;51.630;6.570;2023-05-27T05:23:21;15.70;40.10
79711;DHT22;69465;51.630;6.570;2023-05-27T05:25:48;16.30;38.80
79711;DHT22;69465;51.630;6.570;2023-05-27T05:28:15;16.80;37.70
79711;DHT22;69465;51.630;6.570;2023-05-27T05:30:42;17.30;36.60
79711;DHT22;69465;51.630;6.570;2023-05-27T05:33:08;17.70;35.70
79711;DHT22;69465;51.630;6.570;2023-05-27T05:35:35;18.10;34.60
79711;DHT22;69465;51.630;6.570;2023-05-27T05:38:02;18.50;33.70
79711;DHT22;69465;51.630;6.570;2023-05-27T05:40:28;18.80;33.20
79711;DHT22;69465;51.630;6.570;2023-05-27T05:42:55;19.20;32.60
79711;DHT22;69465;51.630;6.570;2023-05-27T05:45:22;19.40;31.80
79711;DHT22;69465;51.630;6.570;2023-05-27T05:47:49;19.60;31.00
79711;DHT22;69465;51.630;6.570;2023-05-27T05:50:16;19.80;31.30
79711;DHT22;69465;51.630;6.570;2023-05-27T05:52:45;19.90;30.70
79711;DHT22;69465;51.630;6.570;2023-05-27T05:55:12;19.70;30.60
79711;DHT22;69465;51.630;6.570;2023-05-27T05:57:39;19.70;30.70
79711;DHT22;69465;51.630;6.570;2023-05-27T06:00:06;19.80;30.70
79711;DHT22;69465;51.630;6.570;2023-05-27T06:02:33;19.60;30.50
79711;DHT22;69465;51.630;6.570;2023-05-27T06:04:59;19.60;30.90
79711;DHT22;69465;51.630;6.570;2023-05-27T06:07:29;20.00;31.50
79711;DHT22;69465;51.630;6.570;2023-05-27T06:09:56;20.40;30.00
79711;DHT22;69465;51.630;6.570;2023-05-27T06:12:23;20.60;30.00
79711;DHT22;69465;51.630;6.570;2023-05-27T06:14:52;20.70;29.70
79711;DHT22;69465;51.630;6.570;2023-05-27T06:17:19;21.10;29.50
79711;DHT22;69465;51.630;6.570;2023-05-27T06:19:46;21.30;28.80
79711;DHT22;69465;51.630;6.570;2023-05-27T06:22:12;21.30;28.90
79711;DHT22;69465;51.630;6.570;2023-05-27T06:24:39;21.20;29.10
79711;DHT22;69465;51.630;6.570;2023-05-27T06:27:06;20.60;29.10
79711;DHT22;69465;51.630;6.570;2023-05-27T06:29:33;20.70;29.90
79711;DHT22;69465;51.630;6.570;2023-05-27T06:31:59;20.90;29.80
79711;DHT22;69465;51.630;6.570;2023-05-27T06:34:26;21.00;29.50
79711;DHT22;69465;51.630;6.570;2023-05-27T06:36:53;21.30;28.80
79711;DHT22;69465;51.630;6.570;2023-05-27T06:39:20;21.80;29.00
79711;DHT22;69465;51.630;6.570;2023-05-27T06:41:46;22.20;28.50
79711;DHT22;69465;51.630;6.570;2023-05-27T06:44:14;22.60;27.50
79711;DHT22;69465;51.630;6.570;2023-05-27T06:46:40;22.90;27.70
79711;DHT22;69465;51.630;6.570;2023-05-27T06:49:07;22.60;27.10
79711;DHT22;69465;51.630;6.570;2023-05-27T06:51:34;22.10;28.10
79711;DHT22;69465;51.630;6.570;2023-05-27T06:54:01;22.10;27.40
79711;DHT22;69465;51.630;6.570;2023-05-27T06:56:28;22.00;28.00
79711;DHT22;69465;51.630;6.570;2023-05-27T06:58:54;22.20;28.00
79711;DHT22;69465;51.630;6.570;2023-05-27T07:01:21;22.70;27.60
79711;DHT22;69465;51.630;6.570;2023-05-27T07:03:48;23.20;27.40
79711;DHT22;69465;51.630;6.570;2023-05-27T07:06:14;23.50;26.90
79711;DHT22;69465;51.630;6.570;2023-05-27T07:08:41;23.70;26.00
79711;DHT22;69465;51.630;6.570;2023-05-27T07:11:08;23.70;25.90
79711;DHT22;69465;51.630;6.570;2023-05-27T07:13:34;23.80;25.80
79711;DHT22;69465;51.630;6.570;2023-05-27T07:16:01;23.70;26.20
79711;DHT22;69465;51.630;6.570;2023-05-27T07:18:28;23.80;26.50
79711;DHT22;69465;51.630;6.570;2023-05-27T07:20:55;24.30;26.20
79711;DHT22;69465;51.630;6.570;2023-05-27T07:23:22;24.70;24.90
79711;DHT22;69465;51.630;6.570;2023-05-27T07:25:48;25.00;25.60
79711;DHT22;69465;51.630;6.570;2023-05-27T07:28:16;25.60;25.40
79711;DHT22;69465;51.630;6.570;2023-05-27T07:30:43;26.10;24.90
79711;DHT22;69465;51.630;6.570;2023-05-27T07:33:10;26.60;23.80
79711;DHT22;69465;51.630;6.570;2023-05-27T07:35:37;27.10;23.40
79711;DHT22;69465;51.630;6.570;2023-05-27T07:38:04;27.70;23.00
79711;DHT22;69465;51.630;6.570;2023-05-27T07:40:30;27.80;22.00
79711;DHT22;69465;51.630;6.570;2023-05-27T07:42:57;28.00;21.70
79711;DHT22;69465;51.630;6.570;2023-05-27T07:45:24;28.20;22.70
79711;DHT22;69465;51.630;6.570;2023-05-27T07:47:50;28.30;21.60
79711;DHT22;69465;51.630;6.570;2023-05-27T07:50:17;28.50;21.60
79711;DHT22;69465;51.630;6.570;2023-05-27T07:52:44;28.60;21.10
79711;DHT22;69465;51.630;6.570;2023-05-27T07:55:11;28.60;21.10
79711;DHT22;69465;51.630;6.570;2023-05-27T07:57:37;28.50;21.40
79711;DHT22;69465;51.630;6.570;2023-05-27T08:00:05;28.90;20.90
79711;DHT22;69465;51.630;6.570;2023-05-27T08:02:32;29.20;20.60
79711;DHT22;69465;51.630;6.570;2023-05-27T08:04:58;29.40;21.10
79711;DHT22;69465;51.630;6.570;2023-05-27T08:07:25;29.80;20.10
79711;DHT22;69465;51.630;6.570;2023-05-27T08:09:52;30.10;20.40
79711;DHT22;69465;51.630;6.570;2023-05-27T08:12:19;30.50;19.10
79711;DHT22;69465;51.630;6.570;2023-05-27T08:14:46;30.80;19.40
79711;DHT22;69465;51.630;6.570;2023-05-27T08:17:13;30.70;19.00
79711;DHT22;69465;51.630;6.570;2023-05-27T08:19:40;30.50;18.90
79711;DHT22;69465;51.630;6.570;2023-05-27T08:22:06;30.20;19.10
79711;DHT22;69465;51.630;6.570;2023-05-27T08:24:33;30.00;19.50
79711;DHT22;69465;51.630;6.570;2023-05-27T08:27:00;30.00;19.10
79711;DHT22;69465;51.630;6.570;2023-05-27T08:29:27;30.00;20.30
79711;DHT22;69465;51.630;6.570;2023-05-27T08:31:54;30.00;19.10
79711;DHT22;69465;51.630;6.570;2023-05-27T08:34:20;29.40;19.30
79711;DHT22;69465;51.630;6.570;2023-05-27T08:36:47;29.40;19.20
79711;DHT22;69465;51.630;6.570;2023-05-27T08:39:14;29.60;19.50
79711;DHT22;69465;51.630;6.570;2023-05-27T08:41:41;29.30;19.10
79711;DHT22;69465;51.630;6.570;2023-05-27T08:44:08;29.50;19.20
79711;DHT22;69465;51.630;6.570;2023-05-27T08:46:38;29.80;19.40
79711;DHT22;69465;51.630;6.570;2023-05-27T08:49:06;29.90;18.80
79711;DHT22;69465;51.630;6.570;2023-05-27T08:51:37;29.70;18.80
79711;DHT22;69465;51.630;6.570;2023-05-27T08:54:04;30.00;19.50
79711;DHT22;69465;51.630;6.570;2023-05-27T08:56:31;30.20;18.00
79711;DHT22;69465;51.630;6.570;2023-05-27T08:58:59;30.20;18.50
79711;DHT22;69465;51.630;6.570;2023-05-27T09:01:27;30.40;19.10
79711;DHT22;69465;51.630;6.570;2023-05-27T09:03:55;30.50;18.00
79711;DHT22;69465;51.630;6.570;2023-05-27T09:06:22;30.30;17.90
79711;DHT22;69465;51.630;6.570;2023-05-27T09:08:49;30.40;17.90
79711;DHT22;69465;51.630;6.570;2023-05-27T09:11:25;30.60;18.10
79711;DHT22;69465;51.630;6.570;2023-05-27T09:13:55;30.30;18.50
79711;DHT22;69465;51.630;6.570;2023-05-27T09:16:22;30.00;19.00
79711;DHT22;69465;51.630;6.570;2023-05-27T09:18:49;30.40;18.10
79711;DHT22;69465;51.630;6.570;2023-05-27T09:21:17;30.50;18.00
79711;DHT22;69465;51.630;6.570;2023-05-27T09:23:44;30.80;17.60
79711;DHT22;69465;51.630;6.570;2023-05-27T09:26:12;30.90;17.40
79711;DHT22;69465;51.630;6.570;2023-05-27T09:28:39;30.90;19.10
79711;DHT22;69465;51.630;6.570;2023-05-27T09:31:07;30.80;18.60
79711;DHT22;69465;51.630;6.570;2023-05-27T09:33:36;31.10;18.60
79711;DHT22;69465;51.630;6.570;2023-05-27T09:36:04;31.40;19.50
79711;DHT22;69465;51.630;6.570;2023-05-27T09:38:31;31.90;18.90
79711;DHT22;69465;51.630;6.570;2023-05-27T09:41:00;32.10;16.30
79711;DHT22;69465;51.630;6.570;2023-05-27T09:43:28;32.00;16.30
79711;DHT22;69465;51.630;6.570;2023-05-27T09:46:02;31.80;16.20
79711;DHT22;69465;51.630;6.570;2023-05-27T09:48:31;31.80;17.10
79711;DHT22;69465;51.630;6.570;2023-05-27T09:50:59;31.90;16.30
79711;DHT22;69465;51.630;6.570;2023-05-27T09:53:27;32.10;16.30
79711;DHT22;69465;51.630;6.570;2023-05-27T09:55:54;32.30;16.40
79711;DHT22;69465;51.630;6.570;2023-05-27T09:58:22;32.10;15.30
79711;DHT22;69465;51.630;6.570;2023-05-27T10:00:51;31.60;15.60
79711;DHT22;69465;51.630;6.570;2023-05-27T10:03:21;31.40;17.40
79711;DHT22;69465;51.630;6.570;2023-05-27T10:05:50;31.80;16.20
79711;DHT22;69465;51.630;6.570;2023-05-27T10:08:18;31.60;17.30
79711;DHT22;69465;51.630;6.570;2023-05-27T10:10:52;31.70;17.10
79711;DHT22;69465;51.630;6.570;2023-05-27T10:13:24;31.40;17.30
79711;DHT22;69465;51.630;6.570;2023-05-27T10:15:51;31.50;16.60
79711;DHT22;69465;51.630;6.570;2023-05-27T10:18:23;31.60;15.50
79711;DHT22;69465;51.630;6.570;2023-05-27T10:20:51;31.60;14.90
79711;DHT22;69465;51.630;6.570;2023-05-27T10:23:29;31.60;16.10
79711;DHT22;69465;51.630;6.570;2023-05-27T10:26:07;31.70;16.90
79711;DHT22;69465;51.630;6.570;2023-05-27T10:28:36;31.80;16.70
79711;DHT22;69465;51.630;6.570;2023-05-27T10:31:14;31.90;14.90
79711;DHT22;69465;51.630;6.570;2023-05-27T10:33:49;32.40;14.80
79711;DHT22;69465;51.630;6.570;2023-05-27T10:36:21;32.40;14.90
79711;DHT22;69465;51.630;6.570;2023-05-27T10:39:00;32.30;13.60
79711;DHT22;69465;51.630;6.570;2023-05-27T10:41:27;31.90;14.20
79711;DHT22;69465;51.630;6.570;2023-05-27T10:43:58;31.40;14.30
79711;DHT22;69465;51.630;6.570;2023-05-27T10:46:25;30.70;17.20
79711;DHT22;69465;51.630;6.570;2023-05-27T10:48:53;30.60;15.60
79711;DHT22;69465;51.630;6.570;2023-05-27T10:51:19;30.60;15.60
79711;DHT22;69465;51.630;6.570;2023-05-27T10:53:46;30.50;17.00
79711;DHT22;69465;51.630;6.570;2023-05-27T10:56:20;30.30;15.00
79711;DHT22;69465;51.630;6.570;2023-05-27T10:58:47;30.00;16.00
79711;DHT22;69465;51.630;6.570;2023-05-27T11:01:16;30.00;15.30
79711;DHT22;69465;51.630;6.570;2023-05-27T11:03:44;29.50;15.40
79711;DHT22;69465;51.630;6.570;2023-05-27T11:06:13;29.20;16.20
79711;DHT22;69465;51.630;6.570;2023-05-27T11:08:39;29.00;17.60
79711;DHT22;69465;51.630;6.570;2023-05-27T11:11:08;28.90;17.40
79711;DHT22;69465;51.630;6.570;2023-05-27T11:13:45;28.70;16.00
79711;DHT22;69465;51.630;6.570;2023-05-27T11:16:15;28.40;16.10
79711;DHT22;69465;51.630;6.570;2023-05-27T11:18:45;28.10;16.50
79711;DHT22;69465;51.630;6.570;2023-05-27T11:21:13;27.90;17.50
79711;DHT22;69465;51.630;6.570;2023-05-27T11:23:45;27.70;18.00
79711;DHT22;69465;51.630;6.570;2023-05-27T11:26:15;27.40;17.60
79711;DHT22;69465;51.630;6.570;2023-05-27T11:31:23;27.10;17.20
79711;DHT22;69465;51.630;6.570;2023-05-27T11:33:53;26.70;15.90
79711;DHT22;69465;51.630;6.570;2023-05-27T11:36:20;26.00;17.40
79711;DHT22;69465;51.630;6.570;2023-05-27T11:38:55;25.80;19.50
79711;DHT22;69465;51.630;6.570;2023-05-27T11:41:28;25.20;18.40
79711;DHT22;69465;51.630;6.570;2023-05-27T11:46:34;24.60;19.20
79711;DHT22;69465;51.630;6.570;2023-05-27T11:49:03;24.30;20.60
79711;DHT22;69465;51.630;6.570;2023-05-27T11:51:30;24.10;19.50
79711;DHT22;69465;51.630;6.570;2023-05-27T11:53:58;24.00;19.50
79711;DHT22;69465;51.630;6.570;2023-05-27T11:56:26;23.90;20.00
79711;DHT22;69465;51.630;6.570;2023-05-27T11:58:52;24.00;21.50
79711;DHT22;69465;51.630;6.570;2023-05-27T12:01:19;23.90;20.70
79711;DHT22;69465;51.630;6.570;2023-05-27T12:03:46;23.90;22.90
79711;DHT22;69465;51.630;6.570;2023-05-27T12:06:13;23.90;20.30
79711;DHT22;69465;51.630;6.570;2023-05-27T12:08:41;23.80;21.50
79711;DHT22;69465;51.630;6.570;2023-05-27T12:11:08;23.90;21.20
79711;DHT22;69465;51.630;6.570;2023-05-27T12:13:35;24.00;24.30
79711;DHT22;69465;51.630;6.570;2023-05-27T12:16:02;24.10;22.40
79711;DHT22;69465;51.630;6.570;2023-05-27T12:18:29;24.20;23.20
79711;DHT22;69465;51.630;6.570;2023-05-27T12:20:56;24.20;22.20
79711;DHT22;69465;51.630;6.570;2023-05-27T12:23:22;24.20;20.50
79711;DHT22;69465;51.630;6.570;2023-05-27T12:25:49;24.20;20.50
79711;DHT22;69465;51.630;6.570;2023-05-27T12:28:16;24.20;20.30
79711;DHT22;69465;51.630;6.570;2023-05-27T12:30:43;24.20;20.50
79711;DHT22;69465;51.630;6.570;2023-05-27T12:33:11;24.00;20.40
79711;DHT22;69465;51.630;6.570;2023-05-27T12:35:38;24.00;21.00
79711;DHT22;69465;51.630;6.570;2023-05-27T12:38:04;23.90;20.30
79711;DHT22;69465;51.630;6.570;2023-05-27T12:40:31;23.90;21.40
79711;DHT22;69465;51.630;6.570;2023-05-27T12:42:58;23.90;19.00
79711;DHT22;69465;51.630;6.570;2023-05-27T12:45:25;24.00;20.40
79711;DHT22;69465;51.630;6.570;2023-05-27T12:47:52;24.00;20.40
79711;DHT22;69465;51.630;6.570;2023-05-27T12:50:19;24.00;20.60
79711;DHT22;69465;51.630;6.570;2023-05-27T12:52:47;24.00;20.80
79711;DHT22;69465;51.630;6.570;2023-05-27T12:55:14;24.00;20.40
79711;DHT22;69465;51.630;6.570;2023-05-27T12:57:41;24.00;20.10
79711;DHT22;69465;51.630;6.570;2023-05-27T13:00:08;24.00;19.30
79711;DHT22;69465;51.630;6.570;2023-05-27T13:02:35;24.00;19.80
79711;DHT22;69465;51.630;6.570;2023-05-27T13:05:03;23.80;19.70
79711;DHT22;69465;51.630;6.570;2023-05-27T13:07:29;23.80;19.30
79711;DHT22;69465;51.630;6.570;2023-05-27T13:09:56;23.70;19.70
79711;DHT22;69465;51.630;6.570;2023-05-27T13:12:23;23.80;20.10
79711;DHT22;69465;51.630;6.570;2023-05-27T13:14:50;23.80;18.90
79711;DHT22;69465;51.630;6.570;2023-05-27T13:17:16;23.80;20.80
79711;DHT22;69465;51.630;6.570;2023-05-27T13:19:43;23.70;20.40
79711;DHT22;69465;51.630;6.570;2023-05-27T13:22:10;23.60;21.30
79711;DHT22;69465;51.630;6.570;2023-05-27T13:24:37;23.50;21.40
79711;DHT22;69465;51.630;6.570;2023-05-27T13:27:03;23.50;21.10
79711;DHT22;69465;51.630;6.570;2023-05-27T13:29:30;23.50;22.20
79711;DHT22;69465;51.630;6.570;2023-05-27T13:31:57;23.60;21.00
79711;DHT22;69465;51.630;6.570;2023-05-27T13:34:23;23.60;21.10
79711;DHT22;69465;51.630;6.570;2023-05-27T13:36:50;23.70;22.10
79711;DHT22;69465;51.630;6.570;2023-05-27T13:39:17;23.80;21.10
79711;DHT22;69465;51.630;6.570;2023-05-27T13:41:44;23.80;20.40
79711;DHT22;69465;51.630;6.570;2023-05-27T13:44:10;23.80;21.30
79711;DHT22;69465;51.630;6.570;2023-05-27T13:46:38;23.80;21.20
79711;DHT22;69465;51.630;6.570;2023-05-27T13:49:06;23.90;21.20
79711;DHT22;69465;51.630;6.570;2023-05-27T13:51:32;24.00;21.10
79711;DHT22;69465;51.630;6.570;2023-05-27T13:53:59;24.00;20.60
79711;DHT22;69465;51.630;6.570;2023-05-27T13:56:25;24.00;20.90
79711;DHT22;69465;51.630;6.570;2023-05-27T13:58:52;24.10;20.50
79711;DHT22;69465;51.630;6.570;2023-05-27T14:01:19;24.00;21.00
79711;DHT22;69465;51.630;6.570;2023-05-27T14:03:45;24.00;20.80
79711;DHT22;69465;51.630;6.570;2023-05-27T14:06:12;24.10;21.40
79711;DHT22;69465;51.630;6.570;2023-05-27T14:08:39;24.00;20.50
79711;DHT22;69465;51.630;6.570;2023-05-27T14:11:06;24.10;22.00
79711;DHT22;69465;51.630;6.570;2023-05-27T14:13:32;24.10;21.50
79711;DHT22;69465;51.630;6.570;2023-05-27T14:15:59;24.10;21.50
79711;DHT22;69465;51.630;6.570;2023-05-27T14:18:26;24.20;20.90
79711;DHT22;69465;51.630;6.570;2023-05-27T14:20:53;24.20;20.90
79711;DHT22;69465;51.630;6.570;2023-05-27T14:23:20;24.20;21.00
79711;DHT22;69465;51.630;6.570;2023-05-27T14:25:46;24.20;21.10
79711;DHT22;69465;51.630;6.570;2023-05-27T14:28:13;24.20;21.00
79711;DHT22;69465;51.630;6.570;2023-05-27T14:30:40;24.20;20.50
79711;DHT22;69465;51.630;6.570;2023-05-27T14:33:08;24.20;20.10
79711;DHT22;69465;51.630;6.570;2023-05-27T14:35:36;24.20;18.40
79711;DHT22;69465;51.630;6.570;2023-05-27T14:38:03;24.20;20.10
79711;DHT22;69465;51.630;6.570;2023-05-27T14:40:31;24.20;20.20
79711;DHT22;69465;51.630;6.570;2023-05-27T14:42:57;24.10;20.50
79711;DHT22;69465;51.630;6.570;2023-05-27T14:45:24;24.00;20.40
79711;DHT22;69465;51.630;6.570;2023-05-27T14:47:51;24.00;21.40
79711;DHT22;69465;51.630;6.570;2023-05-27T14:50:21;24.00;21.40
79711;DHT22;69465;51.630;6.570;2023-05-27T14:52:52;24.00;21.80
79711;DHT22;69465;51.630;6.570;2023-05-27T14:55:19;24.10;21.00
79711;DHT22;69465;51.630;6.570;2023-05-27T14:57:46;24.10;20.50
79711;DHT22;69465;51.630;6.570;2023-05-27T15:00:13;24.10;21.50
79711;DHT22;69465;51.630;6.570;2023-05-27T15:02:40;24.10;20.90
79711;DHT22;69465;51.630;6.570;2023-05-27T15:05:07;24.10;20.90
79711;DHT22;69465;51.630;6.570;2023-05-27T15:07:36;24.10;18.80
79711;DHT22;69465;51.630;6.570;2023-05-27T15:10:04;24.10;19.30
79711;DHT22;69465;51.630;6.570;2023-05-27T15:12:39;24.10;20.50
79711;DHT22;69465;51.630;6.570;2023-05-27T15:15:09;24.10;20.50
79711;DHT22;69465;51.630;6.570;2023-05-27T15:17:36;24.10;20.50
79711;DHT22;69465;51.630;6.570;2023-05-27T15:20:04;24.10;20.50
79711;DHT22;69465;51.630;6.570;2023-05-27T15:22:31;24.10;21.50
79711;DHT22;69465;51.630;6.570;2023-05-27T15:24:58;24.10;21.00
79711;DHT22;69465;51.630;6.570;2023-05-27T15:27:24;24.20;21.60
79711;DHT22;69465;51.630;6.570;2023-05-27T15:29:52;24.20;20.60
79711;DHT22;69465;51.630;6.570;2023-05-27T15:32:19;24.20;20.50
79711;DHT22;69465;51.630;6.570;2023-05-27T15:34:45;24.20;20.10
79711;DHT22;69465;51.630;6.570;2023-05-27T15:37:12;24.10;20.50
79711;DHT22;69465;51.630;6.570;2023-05-27T15:39:39;24.10;21.40
79711;DHT22;69465;51.630;6.570;2023-05-27T15:42:06;24.10;20.50
79711;DHT22;69465;51.630;6.570;2023-05-27T15:44:33;24.10;20.50
79711;DHT22;69465;51.630;6.570;2023-05-27T15:47:00;24.20;20.50